Terminal Aerodrome Forecast
Issued by NWS Caribou, ME

Home | Current Version | Previous Version | Text Only | Print | Product List | Glossary On
Versions: 1 2 3 4 5 6 7 8 9 10 11 12 13 14
000
FTUS41 KCAR 122000 AAA
TAFBGR
TAF AMD
KBGR 122027Z 1220/1318 17014G18KT P6SM FEW060
     FM130000 19006KT P6SM FEW250
     FM131300 18006KT P6SM BKN250
     FM131700 19011KT P6SM BKN250=

USA.gov is the U.S. government's official web portal to all federal, state and local government web resources and services.